createdAt,value
2019-04-13T00:00:52.131Z,101952.58
2019-04-13T00:03:20.630Z,101959.47
2019-04-13T00:06:02.940Z,101957.33
2019-04-13T00:08:33.196Z,101959.91
2019-04-13T00:11:06.344Z,101949.18
2019-04-13T00:13:35.298Z,101950.47
2019-04-13T00:16:04.356Z,101951.79
2019-04-13T00:18:32.966Z,101947.96
2019-04-13T00:21:01.575Z,101947.96
2019-04-13T00:23:30.187Z,101947.14
2019-04-13T00:25:59.203Z,101944.53
2019-04-13T00:28:27.959Z,101942.45
2019-04-13T00:30:56.629Z,101935.06
2019-04-13T00:33:25.249Z,101938.92
2019-04-13T00:35:53.858Z,101935.52
2019-04-13T00:38:22.660Z,101933.77
2019-04-13T00:40:52.746Z,101940.24
2019-04-13T00:43:22.812Z,101935.06
2019-04-13T00:45:53.243Z,101932.88
2019-04-13T00:48:21.833Z,101927.73
2019-04-13T00:50:52.286Z,101933.80
2019-04-13T00:53:23.349Z,101938.30
2019-04-13T00:55:51.988Z,101935.27
2019-04-13T00:58:20.617Z,101933.59
2019-04-13T01:00:50.399Z,101935.30
2019-04-13T01:03:18.917Z,101940.05
2019-04-13T01:05:47.593Z,101934.91
2019-04-13T01:08:16.207Z,101935.30
2019-04-13T01:10:44.825Z,101936.23
2019-04-13T01:13:13.379Z,101934.95
2019-04-13T01:15:42.472Z,101937.41
2019-04-13T01:18:11.079Z,101935.30
2019-04-13T01:20:39.791Z,101931.05
2019-04-13T01:23:08.347Z,101927.58
2019-04-13T01:25:37.013Z,101929.22
2019-04-13T01:28:05.621Z,101929.53
2019-04-13T01:30:34.334Z,101928.24
2019-04-13T01:33:02.943Z,101924.55
2019-04-13T01:35:31.588Z,101925.36
2019-04-13T01:38:00.582Z,101926.22
2019-04-13T01:40:29.157Z,101922.75
2019-04-13T01:42:57.714Z,101920.22
2019-04-13T01:45:26.432Z,101921.07
2019-04-13T01:47:57.233Z,101923.14
2019-04-13T01:50:25.373Z,101920.09
2019-04-13T01:52:53.923Z,101921.89
2019-04-13T01:55:22.497Z,101914.98
2019-04-13T01:57:51.075Z,101914.98
2019-04-13T02:00:21.818Z,101911.52
2019-04-13T02:02:52.107Z,101911.05
2019-04-13T02:05:27.991Z,101917.86
2019-04-13T02:07:58.628Z,101911.52
2019-04-13T02:10:31.890Z,101911.44
2019-04-13T02:13:00.403Z,101911.05
2019-04-13T02:15:29.471Z,101909.68
2019-04-13T02:17:58.083Z,101908.86
2019-04-13T02:20:26.968Z,101908.44
2019-04-13T02:22:55.519Z,101905.87
2019-04-13T02:25:24.108Z,101906.68
2019-04-13T02:27:52.722Z,101903.21
2019-04-13T02:30:22.997Z,101905.35
2019-04-13T02:32:54.614Z,101903.25
2019-04-13T02:35:35.247Z,101895.97
2019-04-13T02:37:53.648Z,101901.45
2019-04-13T02:40:25.237Z,101898.48
2019-04-13T02:42:53.824Z,101900.59
2019-04-13T02:45:25.372Z,101902.36
2019-04-13T02:47:54.365Z,101906.68
2019-04-13T02:50:23.017Z,101903.21
2019-04-13T02:52:54.795Z,101901.02
2019-04-13T02:55:23.410Z,101900.16
2019-04-13T02:57:52.143Z,101897.16
2019-04-13T03:00:20.880Z,101900.64
2019-04-13T03:02:49.550Z,101902.78
2019-04-13T03:05:18.171Z,101900.59
2019-04-13T03:07:46.812Z,101904.50
2019-04-13T03:10:15.833Z,101900.25
2019-04-13T03:12:44.411Z,101902.34
2019-04-13T03:15:13.353Z,101900.11
2019-04-13T03:17:55.949Z,101906.16
2019-04-13T03:20:26.133Z,101904.02
2019-04-13T03:22:55.168Z,101901.88
2019-04-13T03:25:23.778Z,101901.96
2019-04-13T03:27:52.491Z,101900.20
2019-04-13T03:30:22.953Z,101905.39
2019-04-13T03:32:54.533Z,101900.72
2019-04-13T03:35:23.456Z,101906.68
2019-04-13T03:37:53.613Z,101907.50
2019-04-13T03:40:25.298Z,101912.63
2019-04-13T03:42:53.901Z,101907.45
2019-04-13T03:45:22.941Z,101903.21
2019-04-13T03:47:54.539Z,101903.64
2019-04-13T03:50:23.252Z,101910.48
2019-04-13T03:52:51.831Z,101908.86
2019-04-13T03:55:20.505Z,101904.11
2019-04-13T03:57:50.291Z,101907.50
2019-04-13T04:00:18.848Z,101904.92
2019-04-13T04:02:47.419Z,101905.02
2019-04-13T04:05:15.978Z,101903.29
2019-04-13T04:07:44.607Z,101905.91
2019-04-13T04:10:13.729Z,101906.25
2019-04-13T04:12:42.295Z,101902.35
2019-04-13T04:15:11.249Z,101907.53
2019-04-13T04:17:39.861Z,101903.64
2019-04-13T04:20:09.171Z,101910.10
2019-04-13T04:22:37.729Z,101910.95
2019-04-13T04:25:06.509Z,101910.16
2019-04-13T04:27:35.116Z,101909.30
2019-04-13T04:30:04.555Z,101905.44
2019-04-13T04:32:33.115Z,101909.30
2019-04-13T04:35:01.767Z,101907.63
2019-04-13T04:37:30.481Z,101906.77
2019-04-13T04:39:59.086Z,101907.54
2019-04-13T04:42:27.649Z,101905.48
2019-04-13T04:44:56.314Z,101908.86
2019-04-13T04:47:24.862Z,101903.72
2019-04-13T04:49:53.437Z,101907.16
2019-04-13T04:52:23.615Z,101905.87
2019-04-13T04:54:55.091Z,101913.19
2019-04-13T04:57:23.648Z,101905.09
2019-04-13T04:59:55.358Z,101908.05
2019-04-13T05:02:23.876Z,101909.77
2019-04-13T05:04:52.449Z,101910.23
2019-04-13T05:07:20.994Z,101912.45
2019-04-13T05:09:51.638Z,101910.23
2019-04-13T05:12:21.931Z,101912.38
2019-04-13T05:14:50.500Z,101904.31
2019-04-13T05:17:20.391Z,101905.98
2019-04-13T05:19:49.306Z,101903.02
2019-04-13T05:22:26.084Z,101908.29
2019-04-13T05:24:48.157Z,101903.06
2019-04-13T05:27:16.713Z,101902.72
2019-04-13T05:29:45.294Z,101904.47
2019-04-13T05:32:13.852Z,101902.36
2019-04-13T05:34:42.495Z,101901.96
2019-04-13T05:37:11.046Z,101909.68
2019-04-13T05:39:39.624Z,101914.50
2019-04-13T05:42:08.610Z,101914.13
2019-04-13T05:44:37.539Z,101913.28
2019-04-13T05:47:06.091Z,101910.23
2019-04-13T05:49:34.658Z,101912.84
2019-04-13T05:52:03.235Z,101919.28
2019-04-13T05:54:31.850Z,101915.36
2019-04-13T05:57:00.468Z,101913.36
2019-04-13T05:59:29.115Z,101917.25
2019-04-13T06:01:58.110Z,101920.66
2019-04-13T06:04:26.738Z,101922.00
2019-04-13T06:07:00.143Z,101915.08
2019-04-13T06:09:27.042Z,101916.84
2019-04-13T06:11:55.662Z,101922.05
2019-04-13T06:14:24.332Z,101922.11
2019-04-13T06:16:52.902Z,101923.86
2019-04-13T06:19:23.166Z,101925.63
2019-04-13T06:21:54.256Z,101923.45
2019-04-13T06:24:22.860Z,101927.38
2019-04-13T06:26:53.016Z,101929.11
2019-04-13T06:29:24.580Z,101921.37
2019-04-13T06:32:09.889Z,101920.53
2019-04-13T06:34:40.073Z,101919.69
2019-04-13T06:37:12.508Z,101918.47
2019-04-13T06:39:38.938Z,101909.43
2019-04-13T06:42:07.649Z,101923.20
2019-04-13T06:44:36.516Z,101919.75
2019-04-13T06:47:05.522Z,101918.86
2019-04-13T06:49:34.458Z,101920.63
2019-04-13T06:52:04.088Z,101922.78
2019-04-13T06:54:32.801Z,101913.78
2019-04-13T06:57:01.514Z,101913.78
2019-04-13T06:59:30.066Z,101917.27
2019-04-13T07:01:58.722Z,101925.02
2019-04-13T07:04:27.269Z,101919.41
2019-04-13T07:06:57.618Z,101922.86
2019-04-13T07:09:28.422Z,101918.58
2019-04-13T07:11:58.165Z,101923.30
2019-04-13T07:14:26.738Z,101915.56
2019-04-13T07:16:56.964Z,101923.29
2019-04-13T07:19:25.509Z,101921.55
2019-04-13T07:21:54.094Z,101911.65
2019-04-13T07:24:22.636Z,101911.65
2019-04-13T07:26:52.800Z,101913.37
2019-04-13T07:29:24.430Z,101916.70
2019-04-13T07:31:53.131Z,101916.66
2019-04-13T07:34:21.674Z,101917.53
2019-04-13T07:36:51.899Z,101917.53
2019-04-13T07:39:20.767Z,101916.70
2019-04-13T07:41:49.340Z,101924.45
2019-04-13T07:44:22.363Z,101913.68
2019-04-13T07:47:10.399Z,101913.68
2019-04-13T07:49:46.772Z,101914.00
2019-04-13T07:52:16.974Z,101929.50
2019-04-13T07:54:46.000Z,101926.41
2019-04-13T07:57:15.091Z,101909.70
2019-04-13T07:59:43.637Z,101909.70
2019-04-13T08:02:12.995Z,101921.73
2019-04-13T08:04:41.545Z,101921.73
2019-04-13T08:07:10.111Z,101921.92
2019-04-13T08:09:38.682Z,101913.72
2019-04-13T08:12:07.230Z,101913.72
2019-04-13T08:14:35.804Z,101921.00
2019-04-13T08:17:06.660Z,101917.95
2019-04-13T08:19:40.278Z,101917.91
2019-04-13T08:22:08.840Z,101918.64
2019-04-13T08:24:37.438Z,101919.62
2019-04-13T08:27:06.048Z,101912.91
2019-04-13T08:29:34.659Z,101914.55
2019-04-13T08:32:03.274Z,101918.06
2019-04-13T08:34:31.855Z,101918.27
2019-04-13T08:37:03.420Z,101913.27
2019-04-13T08:39:31.277Z,101918.99
2019-04-13T08:41:59.822Z,101909.55
2019-04-13T08:44:28.410Z,101913.34
2019-04-13T08:46:56.991Z,101912.50
2019-04-13T08:49:25.578Z,101908.70
2019-04-13T08:51:54.200Z,101913.33
2019-04-13T08:54:22.825Z,101916.58
2019-04-13T08:56:52.857Z,101911.71
2019-04-13T08:59:22.948Z,101912.16
2019-04-13T09:01:54.455Z,101914.34
2019-04-13T09:04:23.136Z,101912.85
2019-04-13T09:06:51.702Z,101906.20
2019-04-13T09:09:22.026Z,101907.50
2019-04-13T09:11:51.475Z,101902.95
2019-04-13T09:14:20.123Z,101904.30
2019-04-13T09:16:49.377Z,101903.16
2019-04-13T09:19:39.356Z,101905.17
2019-04-13T09:22:09.625Z,101902.77
2019-04-13T09:24:38.271Z,101902.73
2019-04-13T09:27:07.575Z,101894.20
2019-04-13T09:29:36.671Z,101897.55
2019-04-13T09:32:05.281Z,101898.35
2019-04-13T09:34:34.859Z,101898.27
2019-04-13T09:37:03.521Z,101893.28
2019-04-13T09:39:32.070Z,101889.09
2019-04-13T09:42:00.632Z,101882.59
2019-04-13T09:44:31.566Z,101883.89
2019-04-13T09:47:01.744Z,101878.06
2019-04-13T09:49:30.601Z,101885.02
2019-04-13T09:52:00.192Z,101891.00
2019-04-13T09:54:29.689Z,101886.73
2019-04-13T09:56:58.267Z,101878.86
2019-04-13T09:59:26.804Z,101876.31
2019-04-13T10:01:55.809Z,101876.67
2019-04-13T10:04:24.363Z,101869.12
2019-04-13T10:06:52.951Z,101867.48
2019-04-13T10:09:21.872Z,101869.80
2019-04-13T10:12:08.198Z,101868.95
2019-04-13T10:14:54.639Z,101863.09
2019-04-13T10:17:27.797Z,101860.79
2019-04-13T10:19:55.189Z,101858.66
2019-04-13T10:22:24.625Z,101858.36
2019-04-13T10:24:53.421Z,101853.44
2019-04-13T10:27:23.537Z,101857.31
2019-04-13T10:29:53.628Z,101847.56
2019-04-13T10:32:23.820Z,101855.75
2019-04-13T10:34:55.286Z,101844.36
2019-04-13T10:37:23.911Z,101848.01
2019-04-13T10:39:52.479Z,101852.03
2019-04-13T10:42:21.067Z,101840.71
2019-04-13T10:44:51.767Z,101838.78
2019-04-13T10:47:30.541Z,101840.56
2019-04-13T10:50:00.734Z,101840.28
2019-04-13T10:52:29.311Z,101837.76
2019-04-13T10:54:57.873Z,101837.21
2019-04-13T10:57:26.849Z,101841.72
2019-04-13T10:59:58.241Z,101841.71
2019-04-13T11:02:25.696Z,101843.09
2019-04-13T11:04:54.398Z,101834.04
2019-04-13T11:07:22.951Z,101834.38
2019-04-13T11:09:51.702Z,101838.88
2019-04-13T11:12:21.992Z,101841.11
2019-04-13T11:14:50.631Z,101824.95
2019-04-13T11:17:20.914Z,101829.47
2019-04-13T11:19:52.005Z,101826.50
2019-04-13T11:22:22.103Z,101819.78
2019-04-13T11:24:50.758Z,101811.12
2019-04-13T11:27:19.678Z,101817.59
2019-04-13T11:29:48.330Z,101813.75
2019-04-13T11:32:16.880Z,101817.81
2019-04-13T11:34:45.449Z,101815.97
2019-04-13T11:37:14.008Z,101818.41
2019-04-13T11:39:42.579Z,101817.84
2019-04-13T11:42:12.847Z,101813.67
2019-04-13T11:44:47.939Z,101818.53
2019-04-13T11:47:17.475Z,101815.44
2019-04-13T11:49:46.127Z,101814.14
2019-04-13T11:52:14.689Z,101814.08
2019-04-13T11:54:43.268Z,101811.82
2019-04-13T11:57:12.049Z,101814.71
2019-04-13T11:59:40.676Z,101810.13
2019-04-13T12:02:10.868Z,101822.02
2019-04-13T12:04:41.078Z,101817.83
2019-04-13T12:07:11.937Z,101825.67
2019-04-13T12:09:58.392Z,101828.84
2019-04-13T12:12:28.582Z,101816.06
2019-04-13T12:15:07.241Z,101822.75
2019-04-13T12:17:36.547Z,101820.72
2019-04-13T12:20:10.669Z,101816.39
2019-04-13T12:22:40.849Z,101814.41
2019-04-13T12:25:09.571Z,101811.42
2019-04-13T12:27:38.210Z,101816.42
2019-04-13T12:30:10.630Z,101803.53
2019-04-13T12:32:39.949Z,101808.03
2019-04-13T12:35:11.458Z,101805.27
2019-04-13T12:37:39.021Z,101807.59
2019-04-13T12:40:11.751Z,101804.41
2019-04-13T12:42:39.764Z,101805.52
2019-04-13T12:45:08.609Z,101808.27
2019-04-13T12:47:42.201Z,101806.93
2019-04-13T12:50:07.712Z,101802.27
2019-04-13T12:52:36.273Z,101800.64
2019-04-13T12:55:06.113Z,101805.47
2019-04-13T12:57:34.726Z,101804.47
2019-04-13T13:00:08.061Z,101800.11
2019-04-13T13:02:51.745Z,101802.72
2019-04-13T13:05:24.731Z,101795.63
2019-04-13T13:07:53.296Z,101790.91
2019-04-13T13:10:25.292Z,101792.23
2019-04-13T13:12:53.669Z,101797.30
2019-04-13T13:15:24.942Z,101793.12
2019-04-13T13:17:54.608Z,101786.75
2019-04-13T13:20:23.818Z,101789.47
2019-04-13T13:22:52.467Z,101794.55
2019-04-13T13:25:21.830Z,101793.81
2019-04-13T13:27:53.569Z,101785.52
2019-04-13T13:30:23.720Z,101788.00
2019-04-13T13:32:56.708Z,101782.66
2019-04-13T13:35:25.504Z,101780.86
2019-04-13T13:37:54.079Z,101773.06
2019-04-13T13:40:30.996Z,101773.56
2019-04-13T13:42:53.275Z,101774.38
2019-04-13T13:45:25.051Z,101767.22
2019-04-13T13:47:53.662Z,101775.14
2019-04-13T13:50:25.338Z,101772.72
2019-04-13T13:52:53.918Z,101768.20
2019-04-13T13:55:22.885Z,101771.79
2019-04-13T13:58:12.770Z,101767.84
2019-04-13T14:00:57.989Z,101773.37
2019-04-13T14:03:27.076Z,101772.51
2019-04-13T14:05:55.629Z,101769.35
2019-04-13T14:08:24.217Z,101772.10
2019-04-13T14:10:52.777Z,101774.39
2019-04-13T14:13:22.869Z,101771.34
2019-04-13T14:15:52.972Z,101770.38
2019-04-13T14:18:26.266Z,101769.78
2019-04-13T14:20:55.019Z,101767.25
2019-04-13T14:23:23.592Z,101767.61
2019-04-13T14:25:53.693Z,101758.81
2019-04-13T14:28:23.467Z,101757.27
2019-04-13T14:30:53.569Z,101757.22
2019-04-13T14:33:23.767Z,101751.00
2019-04-13T14:35:58.218Z,101750.41
2019-04-13T14:38:26.874Z,101748.69
2019-04-13T14:40:56.354Z,101753.20
2019-04-13T14:43:38.200Z,101751.06
2019-04-13T14:46:08.896Z,101748.70
2019-04-13T14:48:38.011Z,101748.75
2019-04-13T14:51:07.009Z,101750.11
2019-04-13T14:53:36.343Z,101751.13
2019-04-13T14:56:05.547Z,101751.39
2019-04-13T14:58:34.225Z,101752.36
2019-04-13T15:01:02.946Z,101748.87
2019-04-13T15:03:31.529Z,101749.66
2019-04-13T15:06:00.074Z,101750.81
2019-04-13T15:08:28.732Z,101753.00
2019-04-13T15:11:15.557Z,101745.23
2019-04-13T15:13:27.656Z,101750.78
2019-04-13T15:15:56.836Z,101748.86
2019-04-13T15:18:32.923Z,101746.75
2019-04-13T15:21:03.034Z,101746.96
2019-04-13T15:23:34.907Z,101747.23
2019-04-13T15:26:02.086Z,101750.41
2019-04-13T15:28:34.948Z,101753.41
2019-04-13T15:31:03.388Z,101753.33
2019-04-13T15:33:32.904Z,101747.28
2019-04-13T15:36:04.570Z,101748.30
2019-04-13T15:38:32.851Z,101741.66
2019-04-13T15:41:03.417Z,101746.03
2019-04-13T15:43:34.669Z,101745.11
2019-04-13T15:46:02.773Z,101743.89
2019-04-13T15:48:32.402Z,101744.70
2019-04-13T15:51:01.126Z,101745.30
2019-04-13T15:53:29.685Z,101745.95
2019-04-13T15:55:58.975Z,101743.03
2019-04-13T15:58:27.671Z,101739.41
2019-04-13T16:00:56.749Z,101744.02
2019-04-13T16:03:25.904Z,101742.53
2019-04-13T16:05:54.624Z,101740.15
2019-04-13T16:08:24.332Z,101741.68
2019-04-13T16:10:57.567Z,101744.12
2019-04-13T16:13:26.307Z,101742.74
2019-04-13T16:16:04.976Z,101745.06
2019-04-13T16:18:34.754Z,101740.42
2019-04-13T16:21:04.233Z,101738.94
2019-04-13T16:23:32.804Z,101732.89
2019-04-13T16:26:01.897Z,101737.15
2019-04-13T16:28:48.408Z,101732.33
2019-04-13T16:31:21.053Z,101737.23
2019-04-13T16:33:52.498Z,101736.74
2019-04-13T16:36:24.346Z,101743.08
2019-04-13T16:39:00.714Z,101738.28
2019-04-13T16:41:23.716Z,101738.64
2019-04-13T16:43:59.610Z,101739.91
2019-04-13T16:46:29.890Z,101736.34
2019-04-13T16:49:07.681Z,101745.27
2019-04-13T16:51:44.342Z,101741.97
2019-04-13T16:54:21.175Z,101737.86
2019-04-13T16:56:58.628Z,101735.82
2019-04-13T16:59:32.234Z,101748.19
2019-04-13T17:02:15.340Z,101746.07
2019-04-13T17:04:46.575Z,101747.81
2019-04-13T17:07:15.543Z,101745.16
2019-04-13T17:09:45.659Z,101745.77
2019-04-13T17:12:23.123Z,101742.01
2019-04-13T17:14:45.592Z,101746.47
2019-04-13T17:17:14.162Z,101751.17
2019-04-13T17:19:53.561Z,101746.84
2019-04-13T17:22:28.261Z,101749.95
2019-04-13T17:25:14.876Z,101746.19
2019-04-13T17:27:54.235Z,101748.45
2019-04-13T17:30:23.969Z,101755.52
2019-04-13T17:33:00.096Z,101751.16
2019-04-13T17:35:29.511Z,101752.60
2019-04-13T17:37:59.116Z,101752.63
2019-04-13T17:40:30.468Z,101754.83
2019-04-13T17:43:04.014Z,101753.89
2019-04-13T17:45:40.079Z,101754.94
2019-04-13T17:48:10.468Z,101751.59
2019-04-13T17:50:47.437Z,101754.16
2019-04-13T17:53:24.452Z,101759.34
2019-04-13T17:55:55.798Z,101758.53
2019-04-13T17:58:29.896Z,101765.11
2019-04-13T18:01:16.888Z,101767.25
2019-04-13T18:04:04.826Z,101769.52
2019-04-13T18:06:35.875Z,101767.84
2019-04-13T18:09:12.121Z,101773.47
2019-04-13T18:11:59.248Z,101773.50
2019-04-13T18:14:36.097Z,101777.83
2019-04-13T18:17:07.317Z,101766.33
2019-04-13T18:19:37.758Z,101783.56
2019-04-13T18:22:06.438Z,101787.50
2019-04-13T18:24:36.310Z,101785.78
2019-04-13T18:27:04.972Z,101792.73
2019-04-13T18:29:34.696Z,101792.73
2019-04-13T18:32:03.325Z,101789.38
2019-04-13T18:34:33.909Z,101789.38
2019-04-13T18:37:03.613Z,101793.28
2019-04-13T18:39:33.640Z,101793.28
2019-04-13T18:42:03.450Z,101806.13
2019-04-13T18:44:32.313Z,101804.84
2019-04-13T18:47:01.407Z,101805.25
2019-04-13T18:49:30.321Z,101805.23
2019-04-13T18:51:58.922Z,101805.23
2019-04-13T18:54:28.055Z,101803.14
2019-04-13T18:56:58.189Z,101807.50
2019-04-13T18:59:27.313Z,101809.16
2019-04-13T19:01:55.949Z,101813.52
2019-04-13T19:04:24.587Z,101805.84
2019-04-13T19:06:53.154Z,101816.13
2019-04-13T19:09:22.019Z,101817.45
2019-04-13T19:11:50.720Z,101805.02
2019-04-13T19:14:20.061Z,101814.45
2019-04-13T19:16:48.689Z,101813.63
2019-04-13T19:19:17.744Z,101806.80
2019-04-13T19:21:46.395Z,101806.80
2019-04-13T19:24:15.037Z,101811.56
2019-04-13T19:26:43.596Z,101811.56
2019-04-13T19:29:12.234Z,101806.44
2019-04-13T19:31:40.855Z,101806.84
2019-04-13T19:34:09.481Z,101806.84
2019-04-13T19:36:38.241Z,101803.84
2019-04-13T19:39:07.613Z,101792.67
2019-04-13T19:41:36.463Z,101802.58
2019-04-13T19:44:05.067Z,101798.74
2019-04-13T19:46:35.668Z,101802.64
2019-04-13T19:49:04.300Z,101802.64
2019-04-13T19:51:40.477Z,101799.18
2019-04-13T19:54:09.022Z,101798.80
2019-04-13T19:56:37.618Z,101803.04
2019-04-13T19:59:06.341Z,101803.04
2019-04-13T20:01:34.963Z,101787.92
2019-04-13T20:04:03.985Z,101793.14
2019-04-13T20:06:32.567Z,101797.45
2019-04-13T20:09:01.208Z,101797.45
2019-04-13T20:11:29.842Z,101789.66
2019-04-13T20:14:05.287Z,101789.66
2019-04-13T20:16:29.758Z,101790.04
2019-04-13T20:18:58.451Z,101776.69
2019-04-13T20:21:27.058Z,101776.69
2019-04-13T20:23:55.681Z,101791.28
2019-04-13T20:26:25.784Z,101791.28
2019-04-13T20:28:54.946Z,101793.87
2019-04-13T20:31:24.742Z,101784.44
2019-04-13T20:33:54.317Z,101788.70
2019-04-13T20:36:25.517Z,101788.70
2019-04-13T20:38:54.241Z,101795.19
2019-04-13T20:41:29.492Z,101795.17
2019-04-13T20:44:02.290Z,101792.66
2019-04-13T20:46:25.715Z,101792.66
2019-04-13T20:48:55.461Z,101786.09
2019-04-13T20:51:25.491Z,101791.20
2019-04-13T20:53:54.365Z,101800.28
2019-04-13T20:56:23.077Z,101800.28
2019-04-13T20:58:55.508Z,101805.55
2019-04-13T21:01:24.220Z,101806.02
2019-04-13T21:03:53.432Z,101806.08
2019-04-13T21:06:24.032Z,101804.33
2019-04-13T21:08:55.555Z,101803.87
2019-04-13T21:11:22.915Z,101803.87
2019-04-13T21:14:02.583Z,101804.34
2019-04-13T21:16:25.583Z,101810.39
2019-04-13T21:18:54.306Z,101806.12
2019-04-13T21:21:23.783Z,101806.12
2019-04-13T21:23:53.597Z,101809.13
2019-04-13T21:26:24.221Z,101802.63
2019-04-13T21:28:53.692Z,101806.89
2019-04-13T21:31:22.480Z,101806.89
2019-04-13T21:33:51.875Z,101810.35
2019-04-13T21:36:21.608Z,101809.94
2019-04-13T21:38:52.053Z,101810.41
2019-04-13T21:41:21.659Z,101809.56
2019-04-13T21:43:50.462Z,101810.45
2019-04-13T21:46:19.632Z,101806.08
2019-04-13T21:48:48.188Z,101807.41
2019-04-13T21:51:21.016Z,101808.27
2019-04-13T21:53:55.016Z,101806.14
2019-04-13T21:56:26.746Z,101806.14
2019-04-13T21:58:55.420Z,101806.52
2019-04-13T22:01:32.395Z,101810.83
2019-04-13T22:04:02.236Z,101802.33
2019-04-13T22:06:31.970Z,101802.33
2019-04-13T22:09:02.134Z,101813.48
2019-04-13T22:11:32.151Z,101813.48
2019-04-13T22:14:03.533Z,101809.16
2019-04-13T22:16:31.942Z,101813.00
2019-04-13T22:19:00.636Z,101813.00
2019-04-13T22:21:29.267Z,101809.61
2019-04-13T22:23:58.576Z,101809.99
2019-04-13T22:26:28.269Z,101809.99
2019-04-13T22:28:58.665Z,101808.75
2019-04-13T22:31:28.962Z,101812.64
2019-04-13T22:33:58.965Z,101812.64
2019-04-13T22:36:29.148Z,101813.92
2019-04-13T22:38:58.751Z,101820.83
2019-04-13T22:41:28.864Z,101824.30
2019-04-13T22:43:58.777Z,101824.30
2019-04-13T22:46:28.240Z,101819.55
2019-04-13T22:49:16.801Z,101820.41
2019-04-13T22:52:02.117Z,101831.19
2019-04-13T22:54:45.300Z,101833.34
2019-04-13T22:57:32.492Z,101823.89
2019-04-13T23:00:02.085Z,101815.31
2019-04-13T23:02:36.379Z,101815.31
2019-04-13T23:05:07.075Z,101829.50
2019-04-13T23:07:36.956Z,101830.79
2019-04-13T23:10:09.295Z,101830.79
2019-04-13T23:12:38.007Z,101830.80
2019-04-13T23:15:19.390Z,101837.67
2019-04-13T23:17:39.941Z,101837.67
2019-04-13T23:20:10.344Z,101836.39
2019-04-13T23:22:39.000Z,101834.25
2019-04-13T23:25:09.097Z,101828.22
2019-04-13T23:27:37.844Z,101825.22
2019-04-13T23:30:09.446Z,101826.50
2019-04-13T23:32:38.177Z,101826.05
2019-04-13T23:35:08.390Z,101826.05
2019-04-13T23:37:37.031Z,101826.05
2019-04-13T23:40:09.210Z,101825.22
2019-04-13T23:42:38.000Z,101820.91
2019-04-13T23:45:17.142Z,101820.91
2019-04-13T23:47:38.387Z,101817.45
2019-04-13T23:50:08.979Z,101817.45
2019-04-13T23:52:37.767Z,101823.48
2019-04-13T23:55:07.704Z,101819.19
2019-04-13T23:57:38.123Z,101816.64
